Tiempo atmosférico en la estación meteorológica de Espiel, Córdoba (465 m.)



Fecha
DESCASC
Temp. máxima en grados centígrados (hora)
DESCASC
Temp. mínima en grados centígrados (hora)
DESCASC
Temp. media en grados centígrados
DESCASC
Racha de viento máxima en m/sg (hora)
DESCASC
Velocidad máxima media en intervalos de 10 minutos(hora)
DESCASC
Precipitaciones diarias en mm
DESCASC
Precipitaciones de 00:00 a 06:00 en mm
DESCASC
Precipitaciones de 06:00 a 12:00 en mm
DESCASC
Precipitaciones de 12:00 a 18:00 en mm
DESCASC
Precipitaciones de 18:00 a 24:00 en mm
DESCASC
07-08-2020 38.4 (18:00) 19.6 (07:40) 29 8.33 (16:10) 4.17 (15:40) 0 0 0 0 0
06-08-2020 39.7 (17:10) 19.1 (07:40) 29.4 7.5 (14:30) 3.33 (13:50) 0 0 0 0 0
05-08-2020 38.2 (18:00) 20.4 (05:30) 29.3 6.11 (15:50) 3.06 (17:50) 0 0 0 0 0
04-08-2020 36.4 (19:00) 18 (07:30) 27.2 5.28 (11:10) 2.5 (19:10) 0 0 0 0 0
03-08-2020 36.1 (17:40) 19.7 (06:40) 27.9 7.5 (18:50) 3.89 (18:50) 0 0 0 0 0
02-08-2020 39.5 (16:30) 18.8 (00:00) 29.1 10.28 (17:40) 5.28 (17:20) 0 0 0 0 0
01-08-2020 40.9 (18:00) 20.9 (00:00) 30.9 8.89 (16:30) 4.17 (17:10) 0 0 0 0 0
31-07-2020 40.8 (17:00) 19.1 (07:20) 29.9 6.94 (16:50) 3.06 (18:30) 0 0 0 0 0
30-07-2020 39.1 (17:10) 20.8 (00:00) 29.9 9.72 (17:20) 4.72 (15:30) 0 0 0 0 0
29-07-2020 39.7 (16:40) 17.1 (00:00) 28.4 6.67 (15:20) 2.78 (15:20) 0 0 0 0 0
28-07-2020 39.5 (17:00) 18.3 (00:00) 28.9 6.67 (19:30) 3.33 (18:40) 0 0 0 0 0
27-07-2020 38.8 (16:30) 20 (00:00) 29.4 9.17 (14:40) 4.17 (16:10) 0 0 0 0 0
26-07-2020 42.3 (17:30) 17.2 (00:00) 29.8 6.94 (19:30) 3.06 (18:00) 0 0 0 0 0
25-07-2020 40.2 (16:20) 17.7 (00:00) 29 6.67 (18:20) 3.33 (18:20) 0 0 0 0 0
24-07-2020 39.9 (17:30) 19.8 (00:00) 29.9 7.5 (19:10) 3.33 (17:00) 0 0 0 0 0
23-07-2020 38.4 (17:40) 17.8 (00:00) 28.1 6.67 (20:10) 3.61 (15:50) 0 0 0 0 0
22-07-2020 35.2 (17:10) 19.1 (00:00) 27.2 6.39 (20:20) 3.61 (17:20) 0 0 0 0 0
21-07-2020 36 (14:30) 23 (00:00) 29.5 8.89 (15:30) 4.17 (15:30) 0 0 0 0 0
20-07-2020 40.4 (18:10) 17.1 (00:00) 28.8 5.83 (13:40) 2.78 (13:50) 0 0 0 0 0
19-07-2020 39 (17:10) 19 (00:00) 29 8.33 (19:50) 3.89 (19:00) 0 0 0 0 0
18-07-2020 38.9 (16:20) 18.6 (00:00) 28.8 7.78 (19:10) 3.89 (19:00) 0 0 0 0 0
17-07-2020 39.9 (18:00) 20.5 (00:00) 30.2 6.67 (20:00) 3.06 (16:50) 0 0 0 0 0
16-07-2020 39.3 (18:00) 18.8 (00:00) 29 8.61 (15:00) 3.33 (15:00) 0 0 0 0 0
15-07-2020 37.4 (18:00) 18.8 (00:00) 28.1 7.22 (02:00) 3.33 (01:10) 0 0 0 0 0
14-07-2020 37.4 (17:10) 21.1 (00:00) 29.3 8.33 (19:00) 3.89 (18:50) 0 0 0 0 0
13-07-2020 37.6 (17:40) 20.3 (00:00) 28.9 5.56 (20:10) 2.5 (14:40) 0 0 0 0 0

Gráficas

Temp. máximas Temp. mínimas Temp. medias Precipitaciones Rachas de viento máximas Velocidades máximas media en intervalos de 10 minutos

Datos horarios

Fecha y hora oficial Temperatura (ºC) Velocidad del viento (km/h) Dirección del viento Racha (km/h) Dirección de racha Precipitación (mm) Presión (hPa) Tendencia (hPa) Humedad (%)
2020-08-11 23:00:00 20.4 8 Este 28 Nordeste 0 -- -- 77
2020-08-11 22:00:00 22.1 12 Sudeste 21 Sudeste 0 -- -- 68
2020-08-11 21:00:00 22 5 Este 24 Sudeste 0 -- -- 71
2020-08-11 20:00:00 24.4 13 Sudeste 43 Sudeste 0 -- -- 68
2020-08-11 19:00:00 24.3 6 Sudeste 17 Este 0 -- -- 69
2020-08-11 18:00:00 22.2 6 Este 19 Nordeste 0 -- -- 81
2020-08-11 17:00:00 20.6 5 Nordeste 27 Sudoeste 7.2 -- -- 84
2020-08-11 16:00:00 21 6 Nordeste 28 Sudoeste 1.6 -- -- 79
2020-08-11 15:00:00 27.6 10 Oeste 25 Sudoeste 0 -- -- 50
2020-08-11 14:00:00 30 10 Sur 24 Sudoeste 0 -- -- 43
2020-08-11 13:00:00 29.2 9 Sudoeste 21 Sur 0 -- -- 46
2020-08-11 12:00:00 29 8 Sudeste 23 Sur 0 -- -- 46
2020-08-11 11:00:00 29.6 8 Sur 16 Sudeste 0 -- -- 46
2020-08-11 10:00:00 26.3 4 Este 10 Sudeste 0 -- -- 59
2020-08-11 09:00:00 22.4 0 Calma 4 Este 0 -- -- 78
2020-08-11 08:00:00 20.3 0 Calma 3 Norte 0 -- -- 85
2020-08-11 07:00:00 20.3 3 Norte 4 Norte 0 -- -- 82
2020-08-11 06:00:00 20.6 0 Calma 4 Norte 0 -- -- 82
2020-08-11 05:00:00 21.2 0 Calma 4 Nordeste 0 -- -- 77
2020-08-11 04:00:00 21.7 0 Calma 3 Este 0 -- -- 75
2020-08-11 03:00:00 23 2 Sudeste 7 Este 0 -- -- 69
2020-08-11 02:00:00 24.9 0 Calma 17 Sur 0 -- -- 64
2020-08-11 01:00:00 26.7 8 Sur 22 Sur 0 -- -- 60
2020-08-11 00:00:00 28 6 Sur 18 Sur 0 -- -- 52
2020-08-10 23:00:00 27.3 0 Calma 4 Nordeste 0 -- -- 51
2020-08-10 22:00:00 29.4 3 Norte 8 Sudeste 0 -- -- 43
2020-08-10 21:00:00 31.9 2 Sudeste 19 Sur 0 -- -- 37
2020-08-10 20:00:00 33.5 7 Sudoeste 19 Sudeste 0 -- -- 34
2020-08-10 19:00:00 34.4 7 Sur 22 Sur 0 -- -- 32
2020-08-10 18:00:00 35.8 9 Sur 30 Sur 0 -- -- 30
2020-08-10 17:00:00 35.8 15 Sudoeste 25 Sur 0 -- -- 28
2020-08-10 16:00:00 35.1 9 Sur 19 Sudeste 0 -- -- 29
2020-08-10 15:00:00 33.9 8 Sur 26 Sur 0 -- -- 33
2020-08-10 14:00:00 31.9 6 Sur 14 Sur 0 -- -- 37
2020-08-10 13:00:00 26.1 5 Oeste 11 Oeste 0 -- -- 64
2020-08-10 12:00:00 22.4 2 Sur 21 Oeste 0.2 -- -- 82
2020-08-10 11:00:00 20 9 Norte 19 Norte 0.6 -- -- 86
2020-08-10 10:00:00 20 6 Noroeste 13 Oeste 0 -- -- 87
2020-08-10 09:00:00 21.5 5 Nordeste 11 Sudoeste 0 -- -- 78
2020-08-10 08:00:00 21.5 2 Nordeste 4 Nordeste 0 -- -- 67
2020-08-10 07:00:00 20.7 0 Calma 4 Noroeste 0 -- -- 68
2020-08-10 06:00:00 21 2 Norte 4 Norte 0 -- -- 70
2020-08-10 05:00:00 21.5 0 Calma 3 Este 0 -- -- 69
2020-08-10 04:00:00 22.2 2 Este 4 Este 0 -- -- 65
2020-08-10 03:00:00 23.1 0 Calma 5 Este 0 -- -- 57
2020-08-10 02:00:00 24 3 Este 6 Sudeste 0 -- -- 54
2020-08-10 01:00:00 24.6 3 Este 5 Sudeste 0 -- -- 51
2020-08-10 00:00:00 25.4 0 Calma 5 Oeste 0 -- -- 47
2020-08-09 23:00:00 26.7 3 Este 5 Oeste 0 -- -- 44
2020-08-09 22:00:00 29.5 0 Calma 9 Sudoeste 0 -- -- 37
2020-08-09 21:00:00 34.3 4 Sudoeste 18 Sur 0 -- -- 31
2020-08-09 20:00:00 36.3 8 Sudoeste 21 Sur 0 -- -- 27
2020-08-09 19:00:00 38.3 8 Sur 22 Sudoeste 0 -- -- 23
2020-08-09 18:00:00 39.2 9 Sur 22 Sudoeste 0 -- -- 22
2020-08-09 17:00:00 38.7 9 Sudoeste 23 Sudoeste 0 -- -- 22
2020-08-09 16:00:00 38.6 8 Sur 22 Sur 0 -- -- 21
2020-08-09 15:00:00 38 10 Sur 23 Sudoeste 0 -- -- 22
2020-08-09 14:00:00 36.8 14 Sudoeste 29 Sudoeste 0 -- -- 21
2020-08-09 13:00:00 36.1 8 Sur 21 Sur 0 -- -- 21
2020-08-09 12:00:00 34.3 6 Sur 16 Sur 0 -- -- 21
2020-08-09 11:00:00 31.1 5 Sur 10 Sudoeste 0 -- -- 29
2020-08-09 10:00:00 25.9 2 Sur 7 Sudoeste 0 -- -- 55
2020-08-09 09:00:00 22 0 Calma 3 Noroeste 0 -- -- 66
2020-08-09 08:00:00 17.9 2 Sudeste 4 Este 0 -- -- 77
2020-08-09 07:00:00 18.4 3 Noroeste 4 Noroeste 0 -- -- 72
2020-08-09 06:00:00 19.3 2 Este 5 Nordeste 0 -- -- 69
2020-08-09 05:00:00 19.9 3 Este 4 Este 0 -- -- 63
2020-08-09 04:00:00 20.6 0 Calma 4 Este 0 -- -- 59
2020-08-09 03:00:00 21.3 2 Este 5 Sudeste 0 -- -- 54
2020-08-09 02:00:00 22.6 0 Calma 6 Noroeste 0 -- -- 47
2020-08-09 01:00:00 23.3 4 Este 8 Nordeste 0 -- -- 48
2020-08-09 00:00:00 24.7 0 Calma 4 Oeste 0 -- -- 43
2020-08-08 23:00:00 26.4 3 Noroeste 4 Noroeste 0 -- -- 37
2020-08-08 22:00:00 29.3 0 Calma 3 Noroeste 0 -- -- 32
2020-08-08 21:00:00 36.1 2 Sudoeste 13 Sur 0 -- -- 24
2020-08-08 20:00:00 38.2 5 Sur 19 Sudoeste 0 -- -- 22
2020-08-08 19:00:00 39.1 9 Sudoeste 22 Sur 0 -- -- 22
2020-08-08 18:00:00 39.8 6 Sur 22 Sur 0 -- -- 22
2020-08-08 17:00:00 39.4 7 Sudoeste 21 Sudoeste 0 -- -- 22
2020-08-08 16:00:00 38.8 8 Sudeste 18 Sur 0 -- -- 21
2020-08-08 15:00:00 37.8 8 Sur 20 Sudoeste 0 -- -- 23
2020-08-08 14:00:00 36 7 Sur 19 Sur 0 -- -- 26
2020-08-08 13:00:00 33.7 6 Sur 26 Sur 0 -- -- 30
2020-08-08 12:00:00 32.1 10 Sudoeste 26 Sudeste 0 -- -- 31
2020-08-08 11:00:00 27.1 18 Este 40 Este 0 -- -- 44
2020-08-08 10:00:00 25.2 6 Este 13 Este 0 -- -- 48
2020-08-08 09:00:00 24.5 6 Sur 15 Sudoeste 0 -- -- 57
2020-08-08 08:00:00 22.1 5 Este 8 Este 0 -- -- 70
2020-08-08 07:00:00 22.3 0 Calma 9 Sudoeste 0 -- -- 67
2020-08-08 06:00:00 22.1 2 Sudeste 9 Este 0 -- -- 67
2020-08-08 05:00:00 21.6 2 Noroeste 5 Nordeste 0 -- -- 67
2020-08-08 04:00:00 21.7 3 Norte 5 Nordeste 0 -- -- 63
2020-08-08 03:00:00 22.7 0 Calma 7 Este 0 -- -- 58
2020-08-08 02:00:00 24.5 5 Este 9 Este 0 -- -- 51
2020-08-08 01:00:00 23.6 0 Calma 4 Sur 0 -- -- 48
2020-08-08 00:00:00 24.8 3 Nordeste 6 Este 0 -- -- 44
2020-08-07 23:00:00 26.5 3 Nordeste 7 Norte 0 -- -- 39
2020-08-07 22:00:00 28.6 0 Calma 3 Sur 0 -- -- 34
2020-08-07 21:00:00 34.9 3 Sudoeste 13 Sur 0 -- -- 26
2020-08-07 20:00:00 37.3 6 Sur 19 Sudoeste 0 -- -- 21
2020-08-07 19:00:00 38.3 8 Sudoeste 20 Sudoeste 0 -- -- 21
2020-08-07 18:00:00 38.4 11 Sur 24 Sudoeste 0 -- -- 21
2020-08-07 17:00:00 38 9 Sur 30 Sur 0 -- -- 22
2020-08-07 16:00:00 37.7 11 Sudoeste 27 Sudoeste 0 -- -- 24
2020-08-07 15:00:00 37.9 10 Sur 22 Sur 0 -- -- 25
2020-08-07 14:00:00 36.9 6 Sur 15 Sur 0 -- -- 27
2020-08-07 13:00:00 34.8 6 Sudoeste 14 Sur 0 -- -- 30
2020-08-07 12:00:00 33.1 5 Sudoeste 12 Sur 0 -- -- 33
2020-08-07 11:00:00 31.3 3 Sur 8 Sudeste 0 -- -- 37
2020-08-07 10:00:00 27.4 0 Calma 5 Este 0 -- -- 48
2020-08-07 09:00:00 23.7 0 Calma 6 Noroeste 0 -- -- 61
2020-08-07 08:00:00 19.8 3 Este 4 Norte 0 -- -- 68
2020-08-07 07:00:00 20 0 Calma 4 Norte 0 -- -- 67
2020-08-07 06:00:00 20.7 0 Calma 3 Noroeste 0 -- -- 62
2020-08-07 05:00:00 21.7 3 Sudeste 4 Sur 0 -- -- 54
2020-08-07 04:00:00 22.9 4 Este 8 Este 0 -- -- 50
2020-08-07 03:00:00 24.1 3 Este 9 Sur 0 -- -- 51
2020-08-07 02:00:00 24.3 3 Nordeste 6 Este 0 -- -- 47
2020-08-07 01:00:00 27.5 2 Sudeste 19 Sudeste 0 -- -- 38
2020-08-07 00:00:00 29.6 6 Sur 16 Sudoeste 0 -- -- 32
2020-08-06 23:00:00 31 5 Sur 20 Sudeste 0 -- -- 28
2020-08-06 22:00:00 32.5 2 Sur 11 Sudoeste 0 -- -- 29
2020-08-06 21:00:00 35.8 6 Sudoeste 15 Sur 0 -- -- 26
2020-08-06 20:00:00 38.4 6 Sudoeste 20 Sur 0 -- -- 24
2020-08-06 19:00:00 39.6 7 Sudoeste 19 Sudoeste 0 -- -- 23
2020-08-06 18:00:00 39.2 8 Sudoeste 20 Sudoeste 0 -- -- 24
2020-08-06 17:00:00 39.5 9 Sur 22 Sur 0 -- -- 24
2020-08-06 16:00:00 38.3 9 Sur 24 Sudeste 0 -- -- 24
2020-08-06 15:00:00 38 8 Sur 27 Sudeste 0 -- -- 24
2020-08-06 14:00:00 37.3 9 Sur 23 Sur 0 -- -- 24
2020-08-06 13:00:00 36.4 9 Sur 20 Sudeste 0 -- -- 25
2020-08-06 12:00:00 34.5 7 Sur 18 Sudoeste 0 -- -- 29
2020-08-06 11:00:00 31.7 5 Sur 12 Sudoeste 0 -- -- 34
2020-08-06 10:00:00 29 3 Sudeste 6 Este 0 -- -- 41
2020-08-06 09:00:00 23.6 0 Calma 4 Oeste 0 -- -- 62
2020-08-06 08:00:00 19.2 0 Calma 4 Norte 0 -- -- 69
2020-08-06 07:00:00 19.8 0 Calma 4 Nordeste 0 -- -- 66
2020-08-06 06:00:00 21.2 0 Calma 6 Nordeste 0 -- -- 57
2020-08-06 05:00:00 23.1 3 Este 9 Este 0 -- -- 52
2020-08-06 04:00:00 24.1 4 Este 9 Sudeste 0 -- -- 50
2020-08-06 03:00:00 23.6 3 Este 7 Sudeste 0 -- -- 46
2020-08-06 02:00:00 22.9 2 Norte 6 Este 0 -- -- 44
2020-08-06 01:00:00 23.6 2 Sudeste 5 Sur 0 -- -- 43
2020-08-06 00:00:00 25.2 3 Sudeste 10 Sur 0 -- -- 40
2020-08-05 23:00:00 25.8 2 Este 5 Sur 0 -- -- 41
2020-08-05 22:00:00 29 0 Calma 6 Sur 0 -- -- 36
2020-08-05 21:00:00 35.2 4 Sur 15 Sur 0 -- -- 28
2020-08-05 20:00:00 37.3 5 Sur 19 Sur 0 -- -- 25
2020-08-05 19:00:00 37.8 8 Sur 22 Sudeste 0 -- -- 27
2020-08-05 18:00:00 38.2 10 Sudoeste 21 Sudoeste 0 -- -- 25
2020-08-05 17:00:00 38 8 Sudoeste 21 Sur 0 -- -- 25
2020-08-05 16:00:00 37.6 9 Sur 22 Sur 0 -- -- 27
2020-08-05 15:00:00 37 10 Sudoeste 20 Sudoeste 0 -- -- 29
2020-08-05 14:00:00 35.8 9 Sudoeste 18 Sudoeste 0 -- -- 32
2020-08-05 13:00:00 34.6 6 Sur 17 Sur 0 -- -- 34
2020-08-05 12:00:00 33 6 Sur 17 Sur 0 -- -- 38
2020-08-05 11:00:00 31 5 Sur 13 Sur 0 -- -- 45
2020-08-05 10:00:00 28.9 4 Sudeste 12 Sudeste 0 -- -- 50
2020-08-05 09:00:00 25.6 0 Calma 5 Nordeste 0 -- -- 59
2020-08-05 08:00:00 21.3 3 Este 7 Este 0 -- -- 70
2020-08-05 07:00:00 21.2 3 Este 9 Sudeste 0 -- -- 70
2020-08-05 06:00:00 20.8 0 Calma 7 Este 0 -- -- 68
2020-08-05 05:00:00 20.7 3 Noroeste 4 Noroeste 0 -- -- 63
2020-08-05 04:00:00 21.4 0 Calma 4 Este 0 -- -- 61
2020-08-05 03:00:00 21.9 2 Este 5 Sudeste 0 -- -- 62
2020-08-05 02:00:00 22.9 0 Calma 6 Este 0 -- -- 53
2020-08-05 01:00:00 23.9 4 Este 5 Este 0 -- -- 50
2020-08-05 00:00:00 25.2 2 Nordeste 9 Sudoeste 0 -- -- 43
2020-08-04 23:00:00 26.4 3 Este 8 Sudeste 0 -- -- 40
2020-08-04 22:00:00 28.9 5 Este 7 Este 0 -- -- 37
2020-08-04 21:00:00 33.9 4 Sudoeste 17 Sudoeste 0 -- -- 30
2020-08-04 20:00:00 35.8 6 Sudoeste 19 Sudoeste 0 -- -- 27
2020-08-04 19:00:00 36.4 5 Sudoeste 18 Sudoeste 0 -- -- 27
2020-08-04 18:00:00 34.5 3 Sur 19 Sudoeste 0 -- -- 28
2020-08-04 17:00:00 36 8 Sur 17 Sudoeste 0 -- -- 27
2020-08-04 16:00:00 36.2 8 Sur 18 Sur 0 -- -- 26
2020-08-04 15:00:00 35.1 6 Sur 17 Sur 0 -- -- 27
2020-08-04 14:00:00 33.4 9 Sudoeste 18 Sudoeste 0 -- -- 30
2020-08-04 13:00:00 32.7 8 Sur 18 Este 0 -- -- 32
2020-08-04 12:00:00 30.9 7 Sur 19 Sudeste 0 -- -- 35
2020-08-04 11:00:00 28.8 5 Sur 10 Sur 0 -- -- 39
2020-08-04 10:00:00 25.8 4 Sur 8 Sur 0 -- -- 47
2020-08-04 09:00:00 22.4 2 Noroeste 4 Noroeste 0 -- -- 58
2020-08-04 08:00:00 18.2 0 Calma 4 Noroeste 0 -- -- 68
2020-08-04 07:00:00 18.4 0 Calma 4 Noroeste 0 -- -- 63
2020-08-04 06:00:00 19.8 0 Calma 7 Noroeste 0 -- -- 59
2020-08-04 05:00:00 19.8 4 Noroeste 6 Noroeste 0 -- -- 58
2020-08-04 04:00:00 19.5 3 Noroeste 6 Noroeste 0 -- -- 55
2020-08-04 03:00:00 20.2 2 Noroeste 5 Este 0 -- -- 53
2020-08-04 02:00:00 21.3 0 Calma 4 Norte 0 -- -- 53
2020-08-04 01:00:00 22.4 0 Calma 3 Norte 0 -- -- 45
2020-08-04 00:00:00 23.6 0 Calma 5 Este 0 -- -- 42
2020-08-03 23:00:00 25.1 3 Este 4 Este 0 -- -- 40
2020-08-03 22:00:00 28.5 3 Este 16 Noroeste 0 -- -- 32
2020-08-03 21:00:00 33.7 9 Noroeste 21 Noroeste 0 -- -- 25
2020-08-03 20:00:00 35.3 7 Noroeste 24 Oeste 0 -- -- 23
2020-08-03 19:00:00 35.4 14 Oeste 27 Oeste 0 -- -- 23
2020-08-03 18:00:00 35.6 7 Sudoeste 25 Noroeste 0 -- -- 24
2020-08-03 17:00:00 35.7 10 Noroeste 24 Oeste 0 -- -- 23
2020-08-03 16:00:00 34.8 10 Oeste 25 Oeste 0 -- -- 24
2020-08-03 15:00:00 33.9 12 Sudoeste 23 Oeste 0 -- -- 26
2020-08-03 14:00:00 33.2 12 Oeste 25 Sudoeste 0 -- -- 28
2020-08-03 13:00:00 31.3 10 Oeste 21 Oeste 0 -- -- 30
2020-08-03 12:00:00 29.4 8 Sudoeste 18 Oeste 0 -- -- 35
2020-08-03 11:00:00 26.3 12 Oeste 23 Oeste 0 -- -- 39
2020-08-03 10:00:00 24 10 Noroeste 18 Noroeste 0 -- -- 44
2020-08-03 09:00:00 21.7 7 Norte 16 Noroeste 0 -- -- 50
2020-08-03 08:00:00 20.3 4 Noroeste 12 Noroeste 0 -- -- 54
2020-08-03 07:00:00 20.5 7 Noroeste 13 Noroeste 0 -- -- 54
2020-08-03 06:00:00 21.1 6 Noroeste 16 Noroeste 0 -- -- 52
2020-08-03 05:00:00 21.2 3 Noroeste 9 Noroeste 0 -- -- 50
2020-08-03 04:00:00 22.9 4 Norte 13 Norte 0 -- -- 45
2020-08-03 03:00:00 23.9 6 Norte 12 Norte 0 -- -- 43
2020-08-03 02:00:00 24 5 Noroeste 9 Noroeste 0 -- -- 38
2020-08-03 01:00:00 23 4 Noroeste 8 Norte 0 -- -- 33
2020-08-03 00:00:00 23.8 4 Noroeste 8 Noroeste 0 -- -- 30
2020-08-02 23:00:00 26.5 3 Norte 8 Sur 0 -- -- 33
2020-08-02 22:00:00 31.6 4 Sudoeste 19 Oeste 0 -- -- 28
2020-08-02 21:00:00 34.9 8 Oeste 17 Noroeste 0 -- -- 22
2020-08-02 20:00:00 37.7 9 Oeste 24 Noroeste 0 -- -- 15
2020-08-02 19:00:00 38.4 11 Norte 29 Oeste 0 -- -- 12
2020-08-02 18:00:00 39 16 Noroeste 37 Oeste 0 -- -- 11
2020-08-02 17:00:00 39.5 16 Noroeste 34 Noroeste 0 -- -- 11
2020-08-02 16:00:00 39.1 14 Oeste 29 Noroeste 0 -- -- 12
2020-08-02 15:00:00 38.4 13 Oeste 33 Oeste 0 -- -- 13
2020-08-02 14:00:00 37.4 13 Oeste 29 Oeste 0 -- -- 13
2020-08-02 13:00:00 35.7 6 Sur 14 Sur 0 -- -- 18
2020-08-02 12:00:00 33.2 8 Oeste 20 Sudoeste 0 -- -- 16
2020-08-02 11:00:00 29.4 7 Oeste 13 Oeste 0 -- -- 25
2020-08-02 10:00:00 26.4 6 Oeste 14 Oeste 0 -- -- 36
2020-08-02 09:00:00 23.3 4 Noroeste 8 Noroeste 0 -- -- 49
2020-08-02 08:00:00 18.9 2 Sudeste 5 Noroeste 0 -- -- 60
2020-08-02 07:00:00 19.3 4 Noroeste 6 Norte 0 -- -- 59
2020-08-02 06:00:00 20.1 2 Noroeste 8 Noroeste 0 -- -- 56
2020-08-02 05:00:00 19.6 3 Noroeste 6 Noroeste 0 -- -- 55
2020-08-02 04:00:00 19.3 2 Noroeste 4 Noroeste 0 -- -- 45
2020-08-02 03:00:00 19.8 2 Este 3 Nordeste 0 -- -- 47
2020-08-02 02:00:00 20.7 0 Calma 3 Este 0 -- -- 42
2020-08-02 01:00:00 22.2 0 Calma 4 Sudoeste 0 -- -- 37
2020-08-02 00:00:00 24 0 Calma 5 Este 0 -- -- 28
2020-08-01 23:00:00 28 3 Sudeste 10 Norte 0 -- -- 20
2020-08-01 22:00:00 32.4 5 Norte 10 Noroeste 0 -- -- 15
2020-08-01 21:00:00 37 5 Noroeste 19 Noroeste 0 -- -- 13
2020-08-01 20:00:00 38.9 11 Noroeste 27 Noroeste 0 -- -- 11
2020-08-01 19:00:00 40 10 Noroeste 27 Noroeste 0 -- -- 10
2020-08-01 18:00:00 40.9 10 Oeste 28 Oeste 0 -- -- 10
2020-08-01 17:00:00 40.3 14 Noroeste 32 Oeste 0 -- -- 9
2020-08-01 16:00:00 39.7 14 Noroeste 27 Noroeste 0 -- -- 10
2020-08-01 15:00:00 39.2 12 Noroeste 24 Noroeste 0 -- -- 13
2020-08-01 14:00:00 37.5 6 Oeste 21 Noroeste 0 -- -- 19
2020-08-01 13:00:00 36.1 8 Oeste 16 Oeste 0 -- -- 23
2020-08-01 12:00:00 33.6 6 Sudoeste 13 Sudoeste 0 -- -- 28
2020-08-01 11:00:00 31 6 Sudoeste 10 Sudoeste 0 -- -- 33
2020-08-01 10:00:00 27.6 3 Noroeste 6 Noroeste 0 -- -- 38
2020-08-01 09:00:00 24 2 Sudoeste 5 Noroeste 0 -- -- 49
2020-08-01 08:00:00 21 0 Calma 9 Noroeste 0 -- -- 57
2020-08-01 07:00:00 21 4 Norte 6 Norte 0 -- -- 61
2020-08-01 06:00:00 21.9 0 Calma 5 Noroeste 0 -- -- 56
2020-08-01 05:00:00 23.6 0 Calma 5 Este 0 -- -- 61
2020-08-01 04:00:00 23.4 0 Calma 2 Nordeste 0 -- -- 57
2020-08-01 03:00:00 24.5 2 Noroeste 5 Noroeste 0 -- -- 54
2020-08-01 02:00:00 25.7 2 Noroeste 4 Noroeste 0 -- -- 52
2020-08-01 01:00:00 26.6 0 Calma 6 Norte 0 -- -- 46
2020-08-01 00:00:00 27.6 0 Calma 7 Este 0 -- -- 41
2020-07-31 23:00:00 28.8 4 Nordeste 9 Sur 0 -- -- 37
2020-07-31 22:00:00 30.9 3 Este 8 Sudeste 0 -- -- 32
2020-07-31 21:00:00 35.6 6 Sur 17 Sur 0 -- -- 24
2020-07-31 20:00:00 37.2 5 Sudoeste 19 Sudoeste 0 -- -- 26
2020-07-31 19:00:00 39.3 9 Sur 20 Sur 0 -- -- 24
2020-07-31 18:00:00 40.3 7 Sur 20 Sur 0 -- -- 23
2020-07-31 17:00:00 40.8 8 Sudoeste 25 Sudoeste 0 -- -- 21
2020-07-31 16:00:00 39.3 9 Sur 18 Sudoeste 0 -- -- 24
2020-07-31 15:00:00 38.8 8 Sudoeste 19 Sur 0 -- -- 24
2020-07-31 14:00:00 36.8 7 Sudeste 18 Sudoeste 0 -- -- 26
2020-07-31 13:00:00 35.3 5 Sur 18 Sur 0 -- -- 30
2020-07-31 12:00:00 33.8 7 Sudeste 14 Sur 0 -- -- 35
2020-07-31 11:00:00 31.1 4 Sur 10 Sur 0 -- -- 44
2020-07-31 10:00:00 27.3 3 Sur 5 Sur 0 -- -- 58
2020-07-31 09:00:00 23.4 0 Calma 3 Oeste 0 -- -- 70
2020-07-31 08:00:00 19.3 0 Calma 2 Este 0 -- -- 84
2020-07-31 07:00:00 19.4 0 Calma 2 Norte 0 -- -- 81
2020-07-31 06:00:00 20 0 Calma -- -- 0 -- -- 77
2020-07-31 05:00:00 20.6 0 Calma 3 Este 0 -- -- 72
2020-07-31 04:00:00 21.7 2 Este 3 Este 0 -- -- 71
2020-07-31 03:00:00 22.5 0 Calma 3 Este 0 -- -- 63
2020-07-31 02:00:00 23.5 0 Calma 3 Este 0 -- -- 58
2020-07-31 01:00:00 24.5 0 Calma 5 Este 0 -- -- 52
2020-07-31 00:00:00 26 0 Calma 4 Norte 0 -- -- 46
2020-07-30 23:00:00 27.7 2 Nordeste 6 Sudoeste 0 -- -- 44
2020-07-30 22:00:00 31.9 3 Oeste 15 Oeste 0 -- -- 36
2020-07-30 21:00:00 35.1 7 Sudoeste 19 Sudoeste 0 -- -- 34
2020-07-30 20:00:00 36.9 12 Sudoeste 26 Sudoeste 0 -- -- 31
2020-07-30 19:00:00 38 11 Sudoeste 31 Sudoeste 0 -- -- 30
2020-07-30 18:00:00 38.4 14 Sudoeste 35 Sudoeste 0 -- -- 28
2020-07-30 17:00:00 39 11 Sur 28 Sur 0 -- -- 28
2020-07-30 16:00:00 38 12 Sur 35 Sudoeste 0 -- -- 30
2020-07-30 15:00:00 36.9 14 Sudoeste 33 Sudoeste 0 -- -- 33
2020-07-30 14:00:00 36.7 12 Sur 27 Sudoeste 0 -- -- 32
2020-07-30 13:00:00 35.4 9 Sur 22 Sudoeste 0 -- -- 33
2020-07-30 12:00:00 33.2 5 Sur 13 Sur 0 -- -- 39
2020-07-30 11:00:00 31.7 4 Sur 13 Sur 0 -- -- 42
2020-07-30 10:00:00 27.7 2 Noroeste 6 Sudoeste 0 -- -- 58
2020-07-30 09:00:00 24.8 0 Calma 3 Oeste 0 -- -- 67
2020-07-30 08:00:00 21.1 0 Calma 4 Este 0 -- -- 79
2020-07-30 07:00:00 20.9 0 Calma 4 Noroeste 0 -- -- 75
2020-07-30 06:00:00 21.7 2 Norte 4 Norte 0 -- -- 69
2020-07-30 05:00:00 22.8 2 Sudeste 7 Nordeste 0 -- -- 65
2020-07-30 04:00:00 24.7 3 Este 16 Sur 0 -- -- 60
2020-07-30 03:00:00 26.4 6 Sur 18 Sur 0 -- -- 57
2020-07-30 02:00:00 24.4 2 Este 5 Sudeste 0 -- -- 59
2020-07-30 01:00:00 26.4 2 Nordeste 9 Sudoeste 0 -- -- 49
2020-07-30 00:00:00 28.5 4 Sur 11 Sur 0 -- -- 46
2020-07-29 23:00:00 27.3 3 Este 5 Sudeste 0 -- -- 41
2020-07-29 22:00:00 30.2 0 Calma 6 Sudoeste 0 -- -- 34
2020-07-29 21:00:00 36.5 3 Sur 17 Sudoeste 0 -- -- 29
2020-07-29 20:00:00 38 7 Sudoeste 18 Sur 0 -- -- 25
2020-07-29 19:00:00 39.2 9 Sur 22 Sur 0 -- -- 24
2020-07-29 18:00:00 39.4 10 Sudoeste 21 Sudoeste 0 -- -- 24
2020-07-29 17:00:00 39.5 6 Sur 20 Sur 0 -- -- 23
2020-07-29 16:00:00 39.1 8 Sudoeste 24 Sur 0 -- -- 22
2020-07-29 15:00:00 38.6 10 Sur 24 Sur 0 -- -- 24
2020-07-29 14:00:00 37.9 8 Sur 21 Sur 0 -- -- 26
2020-07-29 13:00:00 35.9 6 Sudeste 19 Sur 0 -- -- 29
2020-07-29 12:00:00 33.9 7 Sur 19 Sur 0 -- -- 33
2020-07-29 11:00:00 31.2 5 Sur 10 Sudoeste 0 -- -- 35
2020-07-29 10:00:00 27.1 3 Sudoeste 6 Sur 0 -- -- 43
2020-07-29 09:00:00 22.7 0 Calma 3 Sur 0 -- -- 60
2020-07-29 08:00:00 17.6 0 Calma 5 Sudeste 0 -- -- 74
2020-07-29 07:00:00 17.4 0 Calma 4 Este 0 -- -- 68
2020-07-29 06:00:00 18.3 3 Este 4 Este 0 -- -- 70
2020-07-29 05:00:00 19.2 2 Nordeste 3 Norte 0 -- -- 69
2020-07-29 04:00:00 20.2 0 Calma 5 Sudeste 0 -- -- 68
2020-07-29 03:00:00 21.3 0 Calma 4 Noroeste 0 -- -- 59
2020-07-29 02:00:00 22.8 0 Calma 4 Este 0 -- -- 53
2020-07-29 01:00:00 24.4 0 Calma 5 Este 0 -- -- 54
2020-07-29 00:00:00 26.3 2 Norte 4 Norte 0 -- -- 45
2020-07-28 23:00:00 28.4 3 Noroeste 6 Norte 0 -- -- 38
2020-07-28 22:00:00 31.8 3 Norte 12 Sur 0 -- -- 30
2020-07-28 21:00:00 36.1 5 Sur 19 Sudoeste 0 -- -- 25
2020-07-28 20:00:00 38 8 Sudoeste 24 Sudoeste 0 -- -- 23
2020-07-28 19:00:00 39 9 Sudoeste 23 Sudeste 0 -- -- 24
2020-07-28 18:00:00 39.5 9 Sudoeste 23 Sudoeste 0 -- -- 23
2020-07-28 17:00:00 39.5 5 Sudeste 15 Este 0 -- -- 20
2020-07-28 16:00:00 38.3 5 Oeste 14 Sudoeste 0 -- -- 22
2020-07-28 15:00:00 37.9 6 Sur 15 Nordeste 0 -- -- 25
2020-07-28 14:00:00 36 8 Noroeste 17 Sudoeste 0 -- -- 28
2020-07-28 13:00:00 34.9 5 Oeste 17 Oeste 0 -- -- 31
2020-07-28 12:00:00 33.3 3 Sudoeste 14 Sudoeste 0 -- -- 34
2020-07-28 11:00:00 30.5 4 Sur 11 Sur 0 -- -- 41
2020-07-28 10:00:00 26.5 3 Sur 7 Sur 0 -- -- 53
2020-07-28 09:00:00 22.8 0 Calma 4 Norte 0 -- -- 64
2020-07-28 08:00:00 18.6 3 Norte 5 Noroeste 0 -- -- 74
2020-07-28 07:00:00 18.6 2 Este 3 Este 0 -- -- 75
2020-07-28 06:00:00 19.2 0 Calma 3 Noroeste 0 -- -- 71
2020-07-28 05:00:00 19.7 2 Este 4 Sudeste 0 -- -- 64
2020-07-28 04:00:00 20.3 0 Calma 4 Este 0 -- -- 56
2020-07-28 03:00:00 20.8 0 Calma 3 Norte 0 -- -- 55
2020-07-28 02:00:00 21.6 0 Calma 2 Este 0 -- -- 49
2020-07-28 01:00:00 23 0 Calma 3 Este 0 -- -- 45
2020-07-28 00:00:00 24.4 2 Sudeste 6 Sur 0 -- -- 40
2020-07-27 23:00:00 25.6 3 Este 6 Este 0 -- -- 37
2020-07-27 22:00:00 30.2 0 Calma 17 Oeste 0 -- -- 30
2020-07-27 21:00:00 34.8 5 Sudoeste 22 Sudoeste 0 -- -- 26
2020-07-27 20:00:00 36.7 10 Sudoeste 26 Sudoeste 0 -- -- 25
2020-07-27 19:00:00 37.8 11 Sudoeste 31 Sudoeste 0 -- -- 24
2020-07-27 18:00:00 38.2 14 Sudoeste 30 Oeste 0 -- -- 23
2020-07-27 17:00:00 38.3 15 Sudoeste 32 Oeste 0 -- -- 23
2020-07-27 16:00:00 38.6 13 Sur 26 Sur 0 -- -- 25
2020-07-27 15:00:00 37.7 11 Sur 33 Sudoeste 0 -- -- 25
2020-07-27 14:00:00 37.6 9 Sur 24 Sur 0 -- -- 25
2020-07-27 13:00:00 35.9 7 Sur 20 Sudoeste 0 -- -- 27
2020-07-27 12:00:00 34.2 8 Sur 20 Sudoeste 0 -- -- 30
2020-07-27 09:00:00 -- -- -- -- -- -- -- -- --
2020-07-27 08:00:00 20.5 0 Calma 4 Este 0 -- -- 70
2020-07-27 07:00:00 20.3 0 Calma 5 Sudoeste 0 -- -- 65
2020-07-27 06:00:00 21.2 2 Norte 5 Oeste 0 -- -- 55
2020-07-27 05:00:00 22.1 0 Calma 5 Norte 0 -- -- 54
2020-07-27 04:00:00 23.8 0 Calma 6 Este 0 -- -- 51
2020-07-27 03:00:00 26.9 3 Sudeste 17 Sur 0 -- -- 43
2020-07-27 02:00:00 29.6 7 Sur 16 Sur 0 -- -- 36
2020-07-27 01:00:00 31.3 6 Sudeste 18 Este 0 -- -- 26
2020-07-27 00:00:00 27 3 Este 5 Norte 0 -- -- 32
2020-07-26 23:00:00 28 2 Sudoeste 5 Este 0 -- -- 31
2020-07-26 22:00:00 31.5 2 Nordeste 4 Este 0 -- -- 29
2020-07-26 21:00:00 38.7 0 Calma 16 Sudoeste 0 -- -- 24
2020-07-26 20:00:00 40.4 7 Sur 25 Sudoeste 0 -- -- 21
2020-07-26 19:00:00 41.4 9 Sudoeste 18 Sur 0 -- -- 20
2020-07-26 18:00:00 41.8 11 Sudoeste 21 Sudoeste 0 -- -- 18
2020-07-26 17:00:00 42 7 Sudoeste 19 Sudeste 0 -- -- 17
2020-07-26 16:00:00 41.6 7 Sudoeste 24 Sudoeste 0 -- -- 17
2020-07-26 15:00:00 40.1 9 Sudeste 22 Sur 0 -- -- 20
2020-07-26 14:00:00 40 8 Sudoeste 17 Sur 0 -- -- 21
2020-07-26 13:00:00 38.1 9 Sudoeste 17 Sudoeste 0 -- -- 23
2020-07-26 12:00:00 35.6 5 Sur 12 Sudoeste 0 -- -- 25
2020-07-26 11:00:00 31.1 4 Sudoeste 9 Sudoeste 0 -- -- 31
2020-07-26 10:00:00 27.1 3 Sur 5 Sur 0 -- -- 42
2020-07-26 09:00:00 23.1 0 Calma 4 Sudoeste 0 -- -- 49
2020-07-26 08:00:00 17.8 0 Calma 3 Este 0 -- -- 63
2020-07-26 07:00:00 17.6 0 Calma 3 Este 0 -- -- 60
2020-07-26 06:00:00 18.3 0 Calma 4 Norte 0 -- -- 62
2020-07-26 05:00:00 19.1 2 Este 3 Este 0 -- -- 61
2020-07-26 04:00:00 20.1 0 Calma 4 Este 0 -- -- 53
2020-07-26 03:00:00 21.5 3 Norte 9 Noroeste 0 -- -- 55
2020-07-26 02:00:00 22.3 0 Calma 4 Oeste 0 -- -- 50
2020-07-26 01:00:00 23.6 0 Calma 5 Sudoeste 0 -- -- 44
2020-07-26 00:00:00 25.6 0 Calma 4 Noroeste 0 -- -- 37
2020-07-25 23:00:00 29.1 0 Calma 10 Noroeste 0 -- -- 32
2020-07-25 22:00:00 31.4 2 Sudoeste 11 Sudoeste 0 -- -- 30
2020-07-25 21:00:00 36.9 5 Sudoeste 18 Oeste 0 -- -- 24
2020-07-25 20:00:00 39 7 Sudoeste 21 Sur 0 -- -- 22
2020-07-25 19:00:00 39.8 7 Sudoeste 24 Sudoeste 0 -- -- 18
2020-07-25 18:00:00 40.2 10 Sudoeste 23 Sudoeste 0 -- -- 20
2020-07-25 17:00:00 40.1 12 Sudoeste 22 Oeste 0 -- -- 18
2020-07-25 16:00:00 39.9 6 Sudoeste 23 Sudoeste 0 -- -- 19
2020-07-25 15:00:00 38.3 9 Oeste 20 Sudoeste 0 -- -- 20
2020-07-25 14:00:00 37.9 6 Sudoeste 20 Oeste 0 -- -- 21
2020-07-25 13:00:00 37.2 9 Sudoeste 19 Sudoeste 0 -- -- 23
2020-07-25 12:00:00 35.5 5 Sur 12 Sur 0 -- -- 25
2020-07-25 11:00:00 31.5 3 Sur 6 Sur 0 -- -- 34
2020-07-25 10:00:00 27.2 2 Sur 5 Sur 0 -- -- 41
2020-07-25 09:00:00 23.3 0 Calma 3 Norte 0 -- -- 51
2020-07-25 08:00:00 18.2 2 Este 3 Sudeste 0 -- -- 63
2020-07-25 07:00:00 18 0 Calma 3 Este 0 -- -- 57
2020-07-25 06:00:00 18.8 0 Calma 2 Norte 0 -- -- 61
2020-07-25 05:00:00 19.4 0 Calma 3 Nordeste 0 -- -- 55
2020-07-25 04:00:00 20.4 2 Noroeste 4 Noroeste 0 -- -- 47
2020-07-25 03:00:00 21.4 0 Calma 7 Este 0 -- -- 47
2020-07-25 02:00:00 23.4 4 Noroeste 6 Noroeste 0 -- -- 52
2020-07-25 01:00:00 25.3 4 Noroeste 5 Noroeste 0 -- -- 45
2020-07-25 00:00:00 28.3 2 Norte 16 Oeste 0 -- -- 37
2020-07-24 23:00:00 32 5 Noroeste 19 Oeste 0 -- -- 34
2020-07-24 22:00:00 32.8 4 Oeste 15 Sudoeste 0 -- -- 33
2020-07-24 21:00:00 35.3 8 Sudoeste 25 Sudoeste 0 -- -- 29
2020-07-24 20:00:00 37.3 10 Sur 27 Sudoeste 0 -- -- 25
2020-07-24 19:00:00 38.9 10 Sur 25 Sudoeste 0 -- -- 24
2020-07-24 18:00:00 39.7 9 Sur 20 Sudeste 0 -- -- 22
2020-07-24 17:00:00 39.6 12 Oeste 19 Sudoeste 0 -- -- 22
2020-07-24 16:00:00 38 5 Oeste 19 Sudoeste 0 -- -- 24
2020-07-24 15:00:00 36.9 6 Nordeste 18 Sur 0 -- -- 26
2020-07-24 14:00:00 37.3 8 Este 22 Este 0 -- -- 26
2020-07-24 13:00:00 36.1 5 Este 12 Sudeste 0 -- -- 29
2020-07-24 12:00:00 34.3 5 Sur 10 Sur 0 -- -- 33
2020-07-24 11:00:00 31.2 3 Sur 9 Sudoeste 0 -- -- 39
2020-07-24 10:00:00 27.8 3 Sur 6 Sur 0 -- -- 49
2020-07-24 09:00:00 24.3 0 Calma 3 Oeste 0 -- -- 62
2020-07-24 08:00:00 20.1 0 Calma 3 Nordeste 0 -- -- 71
2020-07-24 07:00:00 20 0 Calma 3 Este 0 -- -- 69
2020-07-24 06:00:00 20.6 0 Calma 5 Norte 0 -- -- 63
2020-07-24 05:00:00 21.3 3 Noroeste 5 Norte 0 -- -- 58
2020-07-24 04:00:00 21.7 0 Calma 3 Noroeste 0 -- -- 58
2020-07-24 03:00:00 22.5 3 Este 5 Norte 0 -- -- 61
2020-07-24 02:00:00 24.1 2 Norte 5 Noroeste 0 -- -- 54
2020-07-24 01:00:00 25.9 3 Norte 6 Noroeste 0 -- -- 48
2020-07-24 00:00:00 29.2 0 Calma 15 Este 0 -- -- 42
2020-07-23 23:00:00 28.7 3 Norte 7 Oeste 0 -- -- 41
2020-07-23 22:00:00 32.7 3 Sudoeste 18 Sur 0 -- -- 34
2020-07-23 21:00:00 34.3 8 Sudoeste 24 Sudoeste 0 -- -- 32
2020-07-23 20:00:00 35.8 10 Sudoeste 22 Sudoeste 0 -- -- 28
2020-07-23 19:00:00 36.7 5 Sur 22 Sur 0 -- -- 27
2020-07-23 18:00:00 38.3 9 Sudoeste 19 Sudoeste 0 -- -- 26
2020-07-23 17:00:00 38 6 Sur 19 Sur 0 -- -- 26
2020-07-23 16:00:00 37.8 6 Sur 23 Sudoeste 0 -- -- 27
2020-07-23 15:00:00 37.9 11 Sur 21 Sur 0 -- -- 29
2020-07-23 14:00:00 35.9 8 Sudoeste 18 Oeste 0 -- -- 27
2020-07-23 13:00:00 35.2 8 Sudoeste 14 Oeste 0 -- -- 27
2020-07-23 12:00:00 33.3 5 Sudoeste 11 Sudoeste 0 -- -- 31
2020-07-23 11:00:00 30.4 4 Oeste 8 Oeste 0 -- -- 39
2020-07-23 10:00:00 26.6 2 Sur 5 Sur 0 -- -- 49
2020-07-23 09:00:00 22.9 0 Calma 3 Norte 0 -- -- 59
2020-07-23 08:00:00 18.3 0 Calma 3 Este 0 -- -- 70
2020-07-23 07:00:00 18.1 0 Calma 5 Noroeste 0 -- -- 69
2020-07-23 06:00:00 19.2 4 Noroeste 8 Noroeste 0 -- -- 66
2020-07-23 05:00:00 19.2 0 Calma 4 Noroeste 0 -- -- 66
2020-07-23 04:00:00 20.1 0 Calma 3 Nordeste 0 -- -- 67
2020-07-23 03:00:00 21.1 0 Calma 2 Norte 0 -- -- 65
2020-07-23 02:00:00 22.3 0 Calma 5 Norte 0 -- -- 57
2020-07-23 01:00:00 23.7 4 Noroeste 8 Norte 0 -- -- 51
2020-07-23 00:00:00 25.3 2 Sudeste 11 Noroeste 0 -- -- 45
2020-07-22 23:00:00 25.9 2 Norte 6 Norte 0 -- -- 44
2020-07-22 22:00:00 30.6 3 Noroeste 15 Noroeste 0 -- -- 35
2020-07-22 21:00:00 32.9 5 Norte 23 Noroeste 0 -- -- 32
2020-07-22 20:00:00 34.6 7 Oeste 19 Noroeste 0 -- -- 30
2020-07-22 19:00:00 34.7 8 Sudoeste 17 Noroeste 0 -- -- 33
2020-07-22 18:00:00 34.7 9 Noroeste 22 Oeste 0 -- -- 27
2020-07-22 17:00:00 35 11 Sudoeste 18 Sudoeste 0 -- -- 29
2020-07-22 16:00:00 34.5 8 Sudoeste 17 Sudoeste 0 -- -- 31
2020-07-22 15:00:00 33.2 8 Sudoeste 18 Sudoeste 0 -- -- 33
2020-07-22 14:00:00 32.1 7 Sudoeste 17 Sur 0 -- -- 35
2020-07-22 13:00:00 31.1 7 Sudoeste 20 Sur 0 -- -- 38
2020-07-22 12:00:00 30.4 6 Sudeste 17 Sur 0 -- -- 38
2020-07-22 11:00:00 28 6 Sur 12 Sudoeste 0 -- -- 49
2020-07-22 10:00:00 25.5 3 Sudoeste 8 Este 0 -- -- 64
2020-07-22 09:00:00 22.5 2 Noroeste 5 Noroeste 0 -- -- 75
2020-07-22 08:00:00 19.7 3 Este 5 Norte 0 -- -- 85
2020-07-22 07:00:00 19.3 2 Este 4 Sudeste 0 -- -- 82
2020-07-22 06:00:00 19.9 3 Noroeste 5 Este 0 -- -- 80
2020-07-22 05:00:00 20.8 3 Norte 8 Noroeste 0 -- -- 76
2020-07-22 04:00:00 22.8 0 Calma 7 Noroeste 0 -- -- 69
2020-07-22 03:00:00 24.2 4 Noroeste 11 Noroeste 0 -- -- 66
2020-07-22 02:00:00 24.7 4 Noroeste 16 Norte 0 -- -- 64
2020-07-22 01:00:00 25.1 2 Norte 20 Oeste 0 -- -- 61
2020-07-22 00:00:00 26.3 6 Sudoeste 21 Oeste 0 -- -- 60
2020-07-21 23:00:00 27.6 8 Sudoeste 23 Sudoeste 0 -- -- 56
2020-07-21 22:00:00 29.8 7 Sur 19 Sur 0 -- -- 44
2020-07-21 21:00:00 33.3 6 Sur 18 Sudoeste 0 -- -- 32
2020-07-21 20:00:00 35.1 8 Sudoeste 17 Sudoeste 0 -- -- 31
2020-07-21 19:00:00 35.4 10 Noroeste 27 Oeste 0 -- -- 28
2020-07-21 18:00:00 35.6 10 Noroeste 28 Oeste 0 -- -- 28
2020-07-21 17:00:00 35.2 13 Oeste 26 Noroeste 0 -- -- 30
2020-07-21 16:00:00 34.7 14 Noroeste 32 Oeste 0 -- -- 31
2020-07-21 15:00:00 34.5 10 Oeste 24 Oeste 0 -- -- 31
2020-07-21 14:00:00 35.6 7 Sur 21 Sur 0 -- -- 29
2020-07-21 13:00:00 33 5 Sudoeste 23 Noroeste 0 -- -- 32
2020-07-21 12:00:00 30.1 8 Oeste 16 Oeste 0 -- -- 40
2020-07-21 11:00:00 27.2 6 Noroeste 26 Sudeste 0 -- -- 44
2020-07-21 10:00:00 23.2 6 Este 14 Este 0 -- -- 68
2020-07-21 09:00:00 24.6 3 Nordeste 8 Nordeste 0 -- -- 54
2020-07-21 08:00:00 23 0 Calma 6 Este 0 -- -- 53
2020-07-21 07:00:00 24 3 Noroeste 8 Nordeste 0 -- -- 51
2020-07-21 06:00:00 23.2 2 Noroeste 5 Oeste 0 -- -- 49
2020-07-21 05:00:00 25.2 4 Sudeste 9 Nordeste 0 -- -- 45
2020-07-21 04:00:00 25.4 2 Nordeste 17 Sur 0 -- -- 45
2020-07-21 03:00:00 27.7 8 Sur 21 Sudoeste 0 -- -- 41
2020-07-21 02:00:00 26.4 5 Sudeste 9 Este 0 -- -- 40
2020-07-21 01:00:00 26 4 Este 9 Este 0 -- -- 40
2020-07-21 00:00:00 28.6 4 Este 10 Sudeste 0 -- -- 34
2020-07-20 23:00:00 28.6 3 Sur 8 Sudeste 0 -- -- 33
2020-07-20 22:00:00 30.2 3 Este 6 Nordeste 0 -- -- 28
2020-07-20 21:00:00 37.7 2 Sur 13 Sur 0 -- -- 21
2020-07-20 20:00:00 39.5 6 Sur 13 Sur 0 -- -- 18
2020-07-20 19:00:00 40 5 Sudoeste 14 Sudoeste 0 -- -- 17
2020-07-20 18:00:00 40.2 7 Sur 18 Este 0 -- -- 17
2020-07-20 17:00:00 39.9 6 Sur 19 Sur 0 -- -- 18
2020-07-20 16:00:00 39.1 6 Oeste 15 Oeste 0 -- -- 21
2020-07-20 15:00:00 37.7 7 Sudeste 17 Sudeste 0 -- -- 23
2020-07-20 14:00:00 36.8 6 Sur 21 Sudoeste 0 -- -- 28
2020-07-20 13:00:00 35.6 8 Sur 17 Sur 0 -- -- 31
2020-07-20 12:00:00 33.9 6 Sur 16 Sur 0 -- -- 33
2020-07-20 11:00:00 31.4 4 Sur 11 Sudeste 0 -- -- 37
2020-07-20 10:00:00 26 2 Sudoeste 5 Sur 0 -- -- 47
2020-07-20 09:00:00 22.3 2 Este 5 Nordeste 0 -- -- 53
2020-07-20 08:00:00 17.7 2 Este 5 Norte 0 -- -- 69
2020-07-20 07:00:00 17.2 2 Noroeste 4 Noroeste 0 -- -- 68
2020-07-20 06:00:00 17.7 0 Calma 5 Este 0 -- -- 66
2020-07-20 05:00:00 18.5 0 Calma 3 Este 0 -- -- 64
2020-07-20 04:00:00 19.5 0 Calma 3 Este 0 -- -- 66
2020-07-20 03:00:00 20.5 3 Este 5 Este 0 -- -- 61
2020-07-20 02:00:00 21.5 2 Norte 4 Norte 0 -- -- 55
2020-07-20 01:00:00 23.2 2 Nordeste 5 Norte 0 -- -- 48
2020-07-20 00:00:00 25.5 2 Nordeste 5 Nordeste 0 -- -- 45
2020-07-19 23:00:00 28 3 Este 9 Norte 0 -- -- 39
2020-07-19 22:00:00 31.7 2 Nordeste 20 Sudoeste 0 -- -- 33
2020-07-19 21:00:00 34.3 9 Sudoeste 26 Sudoeste 0 -- -- 31
2020-07-19 20:00:00 36.3 13 Sudoeste 30 Sudoeste 0 -- -- 27
2020-07-19 19:00:00 37.8 14 Sudoeste 26 Sudoeste 0 -- -- 25
2020-07-19 18:00:00 38.7 7 Sudoeste 27 Sudoeste 0 -- -- 25
2020-07-19 17:00:00 38.9 11 Sudoeste 26 Sudoeste 0 -- -- 23
2020-07-19 16:00:00 38.3 11 Sudoeste 23 Sudoeste 0 -- -- 24
2020-07-19 15:00:00 37.3 9 Sudoeste 24 Sudoeste 0 -- -- 24
2020-07-19 14:00:00 36 11 Sudoeste 24 Sudoeste 0 -- -- 31
2020-07-19 13:00:00 34.6 6 Sur 18 Sur 0 -- -- 31
2020-07-19 12:00:00 32.3 9 Sur 19 Sur 0 -- -- 37
2020-07-19 11:00:00 30.4 6 Sur 13 Sudoeste 0 -- -- 43
2020-07-19 10:00:00 27.1 4 Sur 13 Sur 0 -- -- 54
2020-07-19 09:00:00 23.9 0 Calma 4 Sudeste 0 -- -- 64
2020-07-19 08:00:00 19.8 4 Sudeste 6 Sudeste 0 -- -- 77
2020-07-19 07:00:00 19.1 0 Calma 3 Este 0 -- -- 76
2020-07-19 06:00:00 19.6 0 Calma 5 Sudeste 0 -- -- 72
2020-07-19 05:00:00 20.4 0 Calma 5 Nordeste 0 -- -- 68
2020-07-19 04:00:00 21.5 0 Calma 4 Nordeste 0 -- -- 64
2020-07-19 03:00:00 22.6 3 Este 4 Este 0 -- -- 61
2020-07-19 02:00:00 24.4 3 Este 5 Este 0 -- -- 56
2020-07-19 01:00:00 27.6 4 Sudoeste 12 Sur 0 -- -- 49
2020-07-19 00:00:00 27.5 0 Calma 8 Oeste 0 -- -- 49
2020-07-18 23:00:00 29.9 2 Sudoeste 13 Sur 0 -- -- 44
2020-07-18 22:00:00 32 4 Sur 18 Sudoeste 0 -- -- 38
2020-07-18 21:00:00 34.3 4 Sudoeste 28 Sudoeste 0 -- -- 35
2020-07-18 20:00:00 36.3 8 Sudoeste 28 Sur 0 -- -- 30
2020-07-18 19:00:00 37.2 14 Sudoeste 28 Oeste 0 -- -- 30
2020-07-18 18:00:00 37.2 11 Sudoeste 25 Sur 0 -- -- 29
2020-07-18 17:00:00 38.7 10 Sudoeste 25 Sudoeste 0 -- -- 27
2020-07-18 16:00:00 38.4 11 Sur 24 Sur 0 -- -- 27
2020-07-18 15:00:00 37.5 10 Sur 22 Sur 0 -- -- 28
2020-07-18 14:00:00 36.2 7 Sur 17 Sudoeste 0 -- -- 30
2020-07-18 13:00:00 34.1 7 Sur 21 Sur 0 -- -- 33
2020-07-18 12:00:00 32.4 6 Sur 14 Sudeste 0 -- -- 37
2020-07-18 11:00:00 29.9 5 Sur 12 Sudeste 0 -- -- 42
2020-07-18 10:00:00 27.5 2 Este 9 Sudeste 0 -- -- 50
2020-07-18 09:00:00 24.5 5 Sudeste 11 Sudeste 0 -- -- 58
2020-07-18 08:00:00 19.1 2 Nordeste 4 Este 0 -- -- 72
2020-07-18 07:00:00 18.9 0 Calma 4 Este 0 -- -- 71
2020-07-18 06:00:00 19.6 0 Calma 2 Norte 0 -- -- 67
2020-07-18 05:00:00 20.4 0 Calma 4 Este 0 -- -- 62
2020-07-18 04:00:00 21.3 0 Calma 5 Sudeste 0 -- -- 58
2020-07-18 03:00:00 22.3 2 Sudeste 5 Nordeste 0 -- -- 54
2020-07-18 02:00:00 23.6 3 Este 5 Nordeste 0 -- -- 48
2020-07-18 01:00:00 25 2 Norte 5 Nordeste 0 -- -- 43
2020-07-18 00:00:00 26.5 2 Este 5 Nordeste 0 -- -- 40
2020-07-17 23:00:00 28.6 3 Este 5 Este 0 -- -- 37
2020-07-17 22:00:00 33.8 2 Nordeste 16 Sudoeste 0 -- -- 28
2020-07-17 21:00:00 35.6 5 Sudoeste 17 Sudoeste 0 -- -- 27
2020-07-17 20:00:00 37 8 Sudoeste 24 Sudoeste 0 -- -- 25
2020-07-17 19:00:00 38.3 9 Sudoeste 21 Sudoeste 0 -- -- 24
2020-07-17 18:00:00 39.9 8 Sudoeste 19 Sur 0 -- -- 22
2020-07-17 17:00:00 39.6 7 Sudoeste 23 Sudoeste 0 -- -- 22
2020-07-17 16:00:00 38.8 7 Sudoeste 21 Sur 0 -- -- 23
2020-07-17 15:00:00 37.3 8 Sur 18 Sur 0 -- -- 24
2020-07-17 14:00:00 36.5 7 Sudoeste 15 Sudoeste 0 -- -- 25
2020-07-17 13:00:00 34.9 6 Sur 13 Sudeste 0 -- -- 25
2020-07-17 12:00:00 32.8 6 Sudoeste 14 Sur 0 -- -- 28
2020-07-17 11:00:00 31.9 5 Sur 14 Sur 0 -- -- 29
2020-07-17 10:00:00 29.8 6 Sur 11 Sudeste 0 -- -- 30
2020-07-17 09:00:00 26.8 3 Sur 6 Sur 0 -- -- 41
2020-07-17 08:00:00 23.1 2 Norte 13 Sur 0 -- -- 40
2020-07-17 07:00:00 24.2 3 Sur 17 Sudoeste 0 -- -- 37
2020-07-17 06:00:00 23 6 Sudeste 15 Sur 0 -- -- 39
2020-07-17 05:00:00 20.9 0 Calma 4 Noroeste 0 -- -- 46
2020-07-17 04:00:00 23 0 Calma 8 Este 0 -- -- 41
2020-07-17 03:00:00 25.3 4 Este 13 Este 0 -- -- 36
2020-07-17 02:00:00 25.5 4 Este 10 Sudeste 0 -- -- 36
2020-07-17 01:00:00 27.5 3 Sudeste 8 Sur 0 -- -- 33
2020-07-17 00:00:00 29 5 Sudeste 11 Sudeste 0 -- -- 29
2020-07-16 23:00:00 29.5 3 Norte 14 Sur 0 -- -- 34
2020-07-16 22:00:00 32 0 Calma 12 Sur 0 -- -- 35
2020-07-16 21:00:00 35.5 4 Sudoeste 11 Sudoeste 0 -- -- 31
2020-07-16 20:00:00 36.6 3 Sur 14 Sur 0 -- -- 28
2020-07-16 19:00:00 38.4 7 Sudeste 19 Sur 0 -- -- 25
2020-07-16 18:00:00 39.3 7 Sudoeste 15 Sudoeste 0 -- -- 25
2020-07-16 17:00:00 38.6 5 Sur 19 Sudoeste 0 -- -- 25
2020-07-16 16:00:00 38.2 7 Sudeste 21 Sudeste 0 -- -- 25
2020-07-16 15:00:00 37.3 12 Este 31 Este 0 -- -- 27
2020-07-16 14:00:00 36.1 6 Sudeste 17 Sudeste 0 -- -- 30
2020-07-16 13:00:00 34.8 5 Este 14 Este 0 -- -- 32
2020-07-16 12:00:00 33.3 7 Sur 14 Sudoeste 0 -- -- 35
2020-07-16 11:00:00 31 5 Sur 12 Sur 0 -- -- 39
2020-07-16 10:00:00 27.5 3 Sudoeste 5 Sur 0 -- -- 48
2020-07-16 09:00:00 24.2 2 Este 5 Sudeste 0 -- -- 61
2020-07-16 08:00:00 19.4 2 Norte 3 Noroeste 0 -- -- 73
2020-07-16 07:00:00 19 0 Calma 3 Norte 0 -- -- 68
2020-07-16 06:00:00 19.6 0 Calma 3 Nordeste 0 -- -- 64
2020-07-16 05:00:00 20.2 0 Calma 3 Sudeste 0 -- -- 60
2020-07-16 04:00:00 20.9 0 Calma 4 Norte 0 -- -- 55
2020-07-16 03:00:00 22.1 0 Calma 4 Sudeste 0 -- -- 52
2020-07-16 02:00:00 24 0 Calma 4 Este 0 -- -- 49
2020-07-16 01:00:00 26.3 2 Noroeste 12 Sudoeste 0 -- -- 43
2020-07-16 00:00:00 27.5 2 Sudoeste 9 Sur 0 -- -- 41
2020-07-15 23:00:00 28.2 3 Nordeste 5 Sur 0 -- -- 41
2020-07-15 22:00:00 30.2 0 Calma 5 Sur 0 -- -- 39
2020-07-15 21:00:00 34.1 4 Sudoeste 10 Sudoeste 0 -- -- 32
2020-07-15 20:00:00 35.4 5 Sudoeste 11 Sur 0 -- -- 29
2020-07-15 19:00:00 37.1 6 Sur 15 Oeste 0 -- -- 26
2020-07-15 18:00:00 37.4 7 Sur 20 Sudoeste 0 -- -- 25
2020-07-15 17:00:00 37.2 6 Sur 16 Sudoeste 0 -- -- 26
2020-07-15 16:00:00 36.3 6 Sudoeste 18 Sur 0 -- -- 28
2020-07-15 15:00:00 35.3 6 Sudoeste 19 Sur 0 -- -- 29
2020-07-15 14:00:00 33.8 8 Sudoeste 18 Sudeste 0 -- -- 31
2020-07-15 13:00:00 32.3 7 Sudeste 17 Sudeste 0 -- -- 34
2020-07-15 12:00:00 30.4 6 Sur 18 Sudeste 0 -- -- 39
2020-07-15 11:00:00 28.6 6 Sudeste 15 Sudeste 0 -- -- 47
2020-07-15 10:00:00 26.7 6 Sudeste 13 Sudeste 0 -- -- 53
2020-07-15 09:00:00 24.5 5 Este 11 Sudeste 0 -- -- 60
2020-07-15 08:00:00 19.9 4 Este 6 Este 0 -- -- 76
2020-07-15 07:00:00 19.1 0 Calma 5 Norte 0 -- -- 73
2020-07-15 06:00:00 20.2 4 Norte 6 Norte 0 -- -- 71
2020-07-15 05:00:00 21.5 0 Calma 9 Sudeste 0 -- -- 65
2020-07-15 04:00:00 23.1 3 Sudeste 13 Sudeste 0 -- -- 60
2020-07-15 03:00:00 24.5 5 Sudeste 22 Este 0 -- -- 55
2020-07-15 02:00:00 25.9 9 Sur 26 Sur 0 -- -- 47
2020-07-15 01:00:00 27 10 Sudeste 18 Este 0 -- -- 43
2020-07-15 00:00:00 28.3 5 Sudeste 19 Sur 0 -- -- 42
2020-07-14 23:00:00 29.9 3 Sudeste 27 Sudoeste 0 -- -- 39
2020-07-14 22:00:00 31 8 Oeste 24 Sudoeste 0 -- -- 38
2020-07-14 21:00:00 32.2 7 Sudoeste 23 Sudoeste 0 -- -- 37
2020-07-14 20:00:00 34.2 13 Sudoeste 30 Sudoeste 0 -- -- 31
2020-07-14 19:00:00 35.4 14 Sudoeste 30 Sudoeste 0 -- -- 32
2020-07-14 18:00:00 34 12 Oeste 28 Oeste 0 -- -- 37
2020-07-14 17:00:00 37.2 10 Sur 24 Sudoeste 0 -- -- 28
2020-07-14 16:00:00 36.5 9 Sur 26 Sudoeste 0 -- -- 29
2020-07-14 15:00:00 35.3 8 Sur 21 Sur 0 -- -- 31
2020-07-14 14:00:00 33.9 7 Sur 18 Sudeste 0 -- -- 34
2020-07-14 13:00:00 32.7 6 Sudeste 15 Este 0 -- -- 36
2020-07-14 12:00:00 31 6 Sudoeste 15 Sur 0 -- -- 39
2020-07-14 11:00:00 29.7 8 Sur 17 Sudoeste 0 -- -- 43
2020-07-14 10:00:00 27.9 4 Sur 10 Sudeste 0 -- -- 45
2020-07-14 09:00:00 24.6 3 Este 5 Este 0 -- -- 54
2020-07-14 08:00:00 21.5 3 Este 6 Este 0 -- -- 65
2020-07-14 07:00:00 22 3 Este 11 Sudeste 0 -- -- 62
2020-07-14 06:00:00 21.8 4 Este 10 Sur 0 -- -- 65
2020-07-14 05:00:00 22.8 3 Sudeste 13 Sur 0 -- -- 64
2020-07-14 04:00:00 24 3 Sur 10 Sur 0 -- -- 59
2020-07-14 03:00:00 25.2 4 Sur 13 Sur 0 -- -- 55
2020-07-14 02:00:00 26.7 5 Sur 20 Sudeste 0 -- -- 52
2020-07-14 01:00:00 27.6 3 Sudeste 9 Sudeste 0 -- -- 51
2020-07-14 00:00:00 27.1 2 Sudeste 9 Sudeste 0 -- -- 51
2020-07-13 23:00:00 27.9 3 Este 6 Este 0 -- -- 48
2020-07-13 22:00:00 30.6 2 Este 15 Sudoeste 0 -- -- 42
2020-07-13 21:00:00 34.4 8 Sudoeste 20 Sudoeste 0 -- -- 37
2020-07-13 20:00:00 36 6 Sudoeste 13 Sudoeste 0 -- -- 32
2020-07-13 19:00:00 35.6 4 Sur 13 Sudoeste 0 -- -- 28
2020-07-13 18:00:00 36.7 5 Sudoeste 15 Sur 0 -- -- 26
2020-07-13 17:00:00 36.1 5 Sudoeste 16 Sudoeste 0 -- -- 30
2020-07-13 16:00:00 36.7 8 Sudoeste 17 Sur 0 -- -- 29
2020-07-13 15:00:00 35.8 9 Sudoeste 17 Sur 0 -- -- 30
2020-07-13 14:00:00 34.4 8 Sudoeste 15 Sudoeste 0 -- -- 34
2020-07-13 13:00:00 33 4 Sudeste 12 Oeste 0 -- -- 39
2020-07-13 12:00:00 31.4 4 Sur 13 Sur 0 -- -- 43
2020-07-13 11:00:00 29 4 Sur 12 Sudeste 0 -- -- 50
2020-07-13 10:00:00 27 4 Este 9 Este 0 -- -- 57
2020-07-13 09:00:00 24.5 3 Sudeste 9 Sudeste 0 -- -- 64
2020-07-13 08:00:00 20.8 3 Sudeste 6 Sudeste 0 -- -- 76
2020-07-13 07:00:00 20.9 3 Este 9 Sudoeste 0 -- -- 75
2020-07-13 06:00:00 22.5 0 Calma 13 Sudoeste 0 -- -- 71
2020-07-13 05:00:00 22.6 4 Sudeste 17 Sur 0 -- -- 72
2020-07-13 04:00:00 23.8 5 Sur 17 Sudoeste 0 -- -- 68
2020-07-13 03:00:00 23.6 4 Sudeste 16 Sur 0 -- -- 60
2020-07-13 02:00:00 22.5 3 Sudeste 8 Sudeste 0 -- -- 50
2020-07-13 01:00:00 23.4 0 Calma 3 Nordeste 0 -- -- 49
2020-07-13 00:00:00 25.7 2 Noroeste 8 Norte 0 -- -- 41